METAR Data
IDs: Format: Raw Decoded Include TAF

Data at: 0847 UTC 13 Aug 2022

EKRS 130820Z AUTO VRB04KT 9999 NCD 25/16 Q1021